createdAt,value
2019-02-17T00:00:39.310Z,9.83
2019-02-17T00:03:08.378Z,9.33
2019-02-17T00:05:37.441Z,12.33
2019-02-17T00:08:06.507Z,14.07
2019-02-17T00:10:35.595Z,10.30
2019-02-17T00:13:04.714Z,9.63
2019-02-17T00:15:33.839Z,8.07
2019-02-17T00:18:02.905Z,8.50
2019-02-17T00:20:31.975Z,8.97
2019-02-17T00:23:01.038Z,10.13
2019-02-17T00:25:30.099Z,10.47
2019-02-17T00:27:59.185Z,9.10
2019-02-17T00:30:28.239Z,9.40
2019-02-17T00:32:57.315Z,8.63
2019-02-17T00:35:26.372Z,9.43
2019-02-17T00:37:55.448Z,8.77
2019-02-17T00:40:24.505Z,8.63
2019-02-17T00:42:53.570Z,9.57
2019-02-17T00:45:22.643Z,10.87
2019-02-17T00:47:51.719Z,11.17
2019-02-17T00:50:20.786Z,12.03
2019-02-17T00:52:49.855Z,9.53
2019-02-17T00:55:18.938Z,9.43
2019-02-17T00:57:48.076Z,9.20
2019-02-17T01:00:17.806Z,11.43
2019-02-17T01:02:46.886Z,12.13
2019-02-17T01:05:16.034Z,12.73
2019-02-17T01:07:45.123Z,11.67
2019-02-17T01:10:14.211Z,12.63
2019-02-17T01:12:43.299Z,11.53
2019-02-17T01:15:12.530Z,11.90
2019-02-17T01:17:41.619Z,10.90
2019-02-17T01:20:10.691Z,9.97
2019-02-17T01:22:39.754Z,9.93
2019-02-17T01:25:09.304Z,9.70
2019-02-17T01:27:38.394Z,10.17
2019-02-17T01:30:16.216Z,10.40
2019-02-17T01:32:45.291Z,9.70
2019-02-17T01:35:14.346Z,10.47
2019-02-17T01:37:43.435Z,10.60
2019-02-17T01:40:12.504Z,9.20
2019-02-17T01:42:41.745Z,10.27
2019-02-17T01:45:10.829Z,10.63
2019-02-17T01:47:39.898Z,10.27
2019-02-17T01:50:09.235Z,10.23
2019-02-17T01:52:38.387Z,9.87
2019-02-17T01:55:07.906Z,10.50
2019-02-17T01:57:36.978Z,9.77
2019-02-17T02:00:07.571Z,10.93
2019-02-17T02:02:36.666Z,10.10
2019-02-17T02:05:06.387Z,11.03
2019-02-17T02:07:35.464Z,10.23
2019-02-17T02:10:05.807Z,10.10
2019-02-17T02:12:34.895Z,9.87
2019-02-17T02:15:05.527Z,10.67
2019-02-17T02:17:34.608Z,12.37
2019-02-17T02:20:05.039Z,9.70
2019-02-17T02:22:34.095Z,11.70
2019-02-17T02:25:03.847Z,11.33
2019-02-17T02:27:32.906Z,11.87
2019-02-17T02:30:02.013Z,10.97
2019-02-17T02:32:31.074Z,12.30
2019-02-17T02:35:00.295Z,10.10
2019-02-17T02:37:29.395Z,11.57
2019-02-17T02:39:58.473Z,10.43
2019-02-17T02:42:27.544Z,10.17
2019-02-17T02:44:56.627Z,10.07
2019-02-17T02:47:25.691Z,10.70
2019-02-17T02:49:54.783Z,11.37
2019-02-17T02:52:23.843Z,10.83
2019-02-17T02:54:52.922Z,12.00
2019-02-17T02:57:21.991Z,11.93
2019-02-17T02:59:52.639Z,11.63
2019-02-17T03:02:22.043Z,12.57
2019-02-17T03:04:51.123Z,12.23
2019-02-17T03:07:20.178Z,13.27
2019-02-17T03:09:49.266Z,12.97
2019-02-17T03:12:18.359Z,12.50
2019-02-17T03:14:47.427Z,12.90
2019-02-17T03:17:16.503Z,12.17
2019-02-17T03:19:45.596Z,11.47
2019-02-17T03:22:14.664Z,11.57
2019-02-17T03:24:43.739Z,10.23
2019-02-17T03:27:12.807Z,12.03
2019-02-17T03:29:42.199Z,10.83
2019-02-17T03:32:11.280Z,11.47
2019-02-17T03:34:40.415Z,11.13
2019-02-17T03:37:09.475Z,11.70
2019-02-17T03:39:38.558Z,13.07
2019-02-17T03:42:07.630Z,12.40
2019-02-17T03:44:36.727Z,11.30
2019-02-17T03:47:06.078Z,11.33
2019-02-17T03:49:35.142Z,11.60
2019-02-17T03:52:04.212Z,12.90
2019-02-17T03:54:33.284Z,12.30
2019-02-17T03:57:02.663Z,11.07
2019-02-17T03:59:31.747Z,10.83
2019-02-17T04:02:00.803Z,11.17
2019-02-17T04:04:29.892Z,10.97
2019-02-17T04:06:58.955Z,11.47
2019-02-17T04:09:28.014Z,11.57
2019-02-17T04:11:57.090Z,11.43
2019-02-17T04:14:26.235Z,10.40
2019-02-17T04:16:55.320Z,11.50
2019-02-17T04:19:24.384Z,11.17
2019-02-17T04:21:53.473Z,11.57
2019-02-17T04:24:22.534Z,11.10
2019-02-17T04:26:51.607Z,9.93
2019-02-17T04:29:20.690Z,10.60
2019-02-17T04:31:49.758Z,10.30
2019-02-17T04:34:18.829Z,9.53
2019-02-17T04:36:47.889Z,9.30
2019-02-17T04:39:16.952Z,10.33
2019-02-17T04:41:46.023Z,9.57
2019-02-17T04:44:15.086Z,9.87
2019-02-17T04:46:44.186Z,10.33
2019-02-17T04:49:13.253Z,10.73
2019-02-17T04:51:42.336Z,10.63
2019-02-17T04:54:11.399Z,11.07
2019-02-17T04:56:40.475Z,11.30
2019-02-17T04:59:09.560Z,9.53
2019-02-17T05:01:38.683Z,10.33
2019-02-17T05:04:07.756Z,12.83
2019-02-17T05:06:36.836Z,11.10
2019-02-17T05:09:05.921Z,11.77
2019-02-17T05:11:35.047Z,11.93
2019-02-17T05:14:04.114Z,12.30
2019-02-17T05:16:33.183Z,12.53
2019-02-17T05:19:02.274Z,11.70
2019-02-17T05:21:31.401Z,11.93
2019-02-17T05:24:00.470Z,12.20
2019-02-17T05:26:29.548Z,10.67
2019-02-17T05:28:58.621Z,10.70
2019-02-17T05:31:27.690Z,10.83
2019-02-17T05:33:56.759Z,10.43
2019-02-17T05:36:25.885Z,12.80
2019-02-17T05:38:54.946Z,11.80
2019-02-17T05:41:24.031Z,12.03
2019-02-17T05:43:53.088Z,11.20
2019-02-17T05:46:22.173Z,11.47
2019-02-17T05:48:51.235Z,12.20
2019-02-17T05:51:20.299Z,11.30
2019-02-17T05:53:49.371Z,11.23
2019-02-17T05:56:18.447Z,13.77
2019-02-17T05:58:47.516Z,13.53
2019-02-17T06:01:16.602Z,12.13
2019-02-17T06:03:45.663Z,11.83
2019-02-17T06:06:15.128Z,11.43
2019-02-17T06:08:44.396Z,11.43
2019-02-17T06:11:13.474Z,11.43
2019-02-17T06:13:42.544Z,10.57
2019-02-17T06:16:11.638Z,12.07
2019-02-17T06:18:40.703Z,10.23
2019-02-17T06:21:09.763Z,10.70
2019-02-17T06:23:38.843Z,11.83
2019-02-17T06:26:07.901Z,10.07
2019-02-17T06:28:36.986Z,10.77
2019-02-17T06:31:13.952Z,12.43
2019-02-17T06:33:36.823Z,12.43
2019-02-17T06:36:05.888Z,12.27
2019-02-17T06:38:34.963Z,12.43
2019-02-17T06:41:04.034Z,13.30
2019-02-17T06:43:33.102Z,12.27
2019-02-17T06:46:02.348Z,11.80
2019-02-17T06:48:31.416Z,10.57
2019-02-17T06:51:00.482Z,10.17
2019-02-17T06:53:29.555Z,10.10
2019-02-17T06:56:12.563Z,8.80
2019-02-17T06:58:41.635Z,9.97
2019-02-17T07:01:10.700Z,8.63
2019-02-17T07:03:39.767Z,9.67
2019-02-17T07:06:19.786Z,10.27
2019-02-17T07:08:48.898Z,9.30
2019-02-17T07:11:18.006Z,8.93
2019-02-17T07:13:47.122Z,9.73
2019-02-17T07:16:17.464Z,9.13
2019-02-17T07:18:46.947Z,9.43
2019-02-17T07:21:16.006Z,9.27
2019-02-17T07:23:45.090Z,10.63
2019-02-17T07:26:14.154Z,10.37
2019-02-17T07:28:43.231Z,10.50
2019-02-17T07:31:12.425Z,9.00
2019-02-17T07:33:41.499Z,9.80
2019-02-17T07:36:10.559Z,10.10
2019-02-17T07:38:39.710Z,10.17
2019-02-17T07:41:08.766Z,10.07
2019-02-17T07:43:37.843Z,10.47
2019-02-17T07:46:06.898Z,9.57
2019-02-17T07:48:35.970Z,9.17
2019-02-17T07:51:05.040Z,10.93
2019-02-17T07:53:34.107Z,9.60
2019-02-17T07:56:03.174Z,10.80
2019-02-17T07:58:32.252Z,10.17
2019-02-17T08:01:01.319Z,10.43
2019-02-17T08:03:30.399Z,9.33
2019-02-17T08:05:59.463Z,9.50
2019-02-17T08:08:28.527Z,10.73
2019-02-17T08:11:03.960Z,9.17
2019-02-17T08:13:28.385Z,9.00
2019-02-17T08:15:57.788Z,10.27
2019-02-17T08:18:26.854Z,8.57
2019-02-17T08:20:55.924Z,10.00
2019-02-17T08:23:25.293Z,9.30
2019-02-17T08:25:54.365Z,9.37
2019-02-17T08:28:23.421Z,9.47
2019-02-17T08:30:52.493Z,9.07
2019-02-17T08:33:21.557Z,10.10
2019-02-17T08:35:50.632Z,9.60
2019-02-17T08:38:19.705Z,8.83
2019-02-17T08:40:49.060Z,9.00
2019-02-17T08:43:18.118Z,9.83
2019-02-17T08:45:47.213Z,9.73
2019-02-17T08:48:16.348Z,8.80
2019-02-17T08:50:45.419Z,9.17
2019-02-17T08:53:14.487Z,9.47
2019-02-17T08:55:43.567Z,10.33
2019-02-17T08:58:12.635Z,10.40
2019-02-17T09:00:41.711Z,9.63
2019-02-17T09:03:11.022Z,10.07
2019-02-17T09:05:44.232Z,8.93
2019-02-17T09:08:10.922Z,11.40
2019-02-17T09:10:40.009Z,10.07
2019-02-17T09:13:09.063Z,9.93
2019-02-17T09:15:38.143Z,9.13
2019-02-17T09:18:07.273Z,9.90
2019-02-17T09:20:36.356Z,9.33
2019-02-17T09:23:05.419Z,9.77
2019-02-17T09:25:34.491Z,9.60
2019-02-17T09:28:03.550Z,10.57
2019-02-17T09:30:32.622Z,10.07
2019-02-17T09:33:01.688Z,10.27
2019-02-17T09:35:30.789Z,9.23
2019-02-17T09:37:59.857Z,9.93
2019-02-17T09:40:29.141Z,9.37
2019-02-17T09:42:58.206Z,9.33
2019-02-17T09:45:27.290Z,9.93
2019-02-17T09:47:56.689Z,9.63
2019-02-17T09:50:26.083Z,10.07
2019-02-17T09:52:55.154Z,8.57
2019-02-17T09:55:24.227Z,9.60
2019-02-17T09:57:53.287Z,10.30
2019-02-17T10:00:22.343Z,9.27
2019-02-17T10:02:51.410Z,9.37
2019-02-17T10:05:20.474Z,9.03
2019-02-17T10:07:51.230Z,9.30
2019-02-17T10:10:20.496Z,9.50
2019-02-17T10:12:49.575Z,9.47
2019-02-17T10:15:18.630Z,8.97
2019-02-17T10:17:47.710Z,9.60
2019-02-17T10:20:16.788Z,8.40
2019-02-17T10:22:45.918Z,8.37
2019-02-17T10:25:14.975Z,7.83
2019-02-17T10:27:44.055Z,10.03
2019-02-17T10:30:16.675Z,9.03
2019-02-17T10:32:45.762Z,12.17
2019-02-17T10:35:15.068Z,9.40
2019-02-17T10:37:44.143Z,9.60
2019-02-17T10:40:14.732Z,9.43
2019-02-17T10:42:43.835Z,8.83
2019-02-17T10:45:13.166Z,9.87
2019-02-17T10:47:42.246Z,8.73
2019-02-17T10:50:11.883Z,8.53
2019-02-17T10:52:41.022Z,9.57
2019-02-17T10:55:11.047Z,9.63
2019-02-17T10:57:40.122Z,10.30
2019-02-17T11:00:15.775Z,9.03
2019-02-17T11:02:47.527Z,8.63
2019-02-17T11:05:15.886Z,9.40
2019-02-17T11:07:44.972Z,8.90
2019-02-17T11:10:14.202Z,9.33
2019-02-17T11:12:43.282Z,9.47
2019-02-17T11:15:13.881Z,9.57
2019-02-17T11:17:42.963Z,8.97
2019-02-17T11:20:12.054Z,8.85
2019-02-17T11:22:41.171Z,8.88
2019-02-17T11:25:10.236Z,9.40
2019-02-17T11:27:39.308Z,9.45
2019-02-17T11:30:12.650Z,9.08
2019-02-17T11:32:41.744Z,9.43
2019-02-17T11:35:10.804Z,8.65
2019-02-17T11:37:39.881Z,9.25
2019-02-17T11:40:10.014Z,10.05
2019-02-17T11:42:39.086Z,10.38
2019-02-17T11:45:12.989Z,8.63
2019-02-17T11:47:42.074Z,7.92
2019-02-17T11:50:11.146Z,8.43
2019-02-17T11:52:40.216Z,8.30
2019-02-17T11:55:10.813Z,9.05
2019-02-17T11:57:39.882Z,9.05
2019-02-17T12:00:13.255Z,9.00
2019-02-17T12:02:42.327Z,8.48
2019-02-17T12:05:11.566Z,8.38
2019-02-17T12:07:40.636Z,9.83
2019-02-17T12:10:10.488Z,8.53
2019-02-17T12:12:39.871Z,7.75
2019-02-17T12:15:10.325Z,8.70
2019-02-17T12:17:39.395Z,8.83
2019-02-17T12:20:19.914Z,9.78
2019-02-17T12:22:50.626Z,9.25
2019-02-17T12:25:21.326Z,8.88
2019-02-17T12:27:52.039Z,8.70
2019-02-17T12:30:21.172Z,8.93
2019-02-17T12:32:50.253Z,9.13
2019-02-17T12:35:19.327Z,8.98
2019-02-17T12:37:48.383Z,8.60
2019-02-17T12:40:17.459Z,8.48
2019-02-17T12:42:46.531Z,9.50
2019-02-17T12:45:18.206Z,8.80
2019-02-17T12:47:55.422Z,8.83
2019-02-17T12:50:17.226Z,8.10
2019-02-17T12:52:47.793Z,8.63
2019-02-17T12:55:17.161Z,8.98
2019-02-17T12:57:46.209Z,9.20
2019-02-17T13:00:16.252Z,8.65
2019-02-17T13:02:45.303Z,8.75
2019-02-17T13:05:14.374Z,8.78
2019-02-17T13:07:43.434Z,8.05
2019-02-17T13:10:12.584Z,8.28
2019-02-17T13:12:41.640Z,8.25
2019-02-17T13:15:11.592Z,8.35
2019-02-17T13:17:40.654Z,8.55
2019-02-17T13:20:10.894Z,8.95
2019-02-17T13:22:39.975Z,8.25
2019-02-17T13:25:10.214Z,8.45
2019-02-17T13:27:39.289Z,8.45
2019-02-17T13:30:12.379Z,9.05
2019-02-17T13:32:41.444Z,9.68
2019-02-17T13:35:10.770Z,11.18
2019-02-17T13:37:39.855Z,11.15
2019-02-17T13:40:10.095Z,9.10
2019-02-17T13:42:39.178Z,9.03
2019-02-17T13:45:09.716Z,8.87
2019-02-17T13:47:38.983Z,10.23
2019-02-17T13:50:09.508Z,8.40
2019-02-17T13:52:38.750Z,8.93
2019-02-17T13:55:08.495Z,8.50
2019-02-17T13:57:37.559Z,8.33
2019-02-17T14:00:11.500Z,8.03
2019-02-17T14:02:40.568Z,7.90
2019-02-17T14:05:09.810Z,7.83
2019-02-17T14:07:38.883Z,7.50
2019-02-17T14:10:09.305Z,7.87
2019-02-17T14:12:38.372Z,7.27
2019-02-17T14:15:14.323Z,7.00
2019-02-17T14:17:43.379Z,6.73
2019-02-17T14:20:12.456Z,7.07
2019-02-17T14:22:41.518Z,7.70
2019-02-17T14:25:11.387Z,7.60
2019-02-17T14:27:40.621Z,7.57
2019-02-17T14:30:11.222Z,7.43
2019-02-17T14:32:40.282Z,7.43
2019-02-17T14:35:09.434Z,8.13
2019-02-17T14:37:38.479Z,7.33
2019-02-17T14:40:09.099Z,7.93
2019-02-17T14:42:38.168Z,8.00
2019-02-17T14:45:14.465Z,7.37
2019-02-17T14:47:43.529Z,7.30
2019-02-17T14:50:13.374Z,7.40
2019-02-17T14:52:42.443Z,6.83
2019-02-17T14:55:11.982Z,7.43
2019-02-17T14:57:41.044Z,7.00
2019-02-17T15:00:11.773Z,7.30
2019-02-17T15:02:40.827Z,7.27
2019-02-17T15:05:10.177Z,7.07
2019-02-17T15:07:39.243Z,7.33
2019-02-17T15:10:09.859Z,7.00
2019-02-17T15:12:38.925Z,7.80
2019-02-17T15:15:09.527Z,6.97
2019-02-17T15:17:38.607Z,7.20
2019-02-17T15:20:09.219Z,6.73
2019-02-17T15:22:38.284Z,6.77
2019-02-17T15:25:09.466Z,5.83
2019-02-17T15:27:38.567Z,6.23
2019-02-17T15:30:09.180Z,6.63
2019-02-17T15:32:38.235Z,6.77
2019-02-17T15:35:07.312Z,4.90
2019-02-17T15:37:36.366Z,5.13
2019-02-17T15:40:07.225Z,5.33
2019-02-17T15:42:36.279Z,6.10
2019-02-17T15:45:07.126Z,6.93
2019-02-17T15:47:36.251Z,5.40
2019-02-17T15:50:06.894Z,6.10
2019-02-17T15:52:35.956Z,5.77
2019-02-17T15:55:24.380Z,6.20
2019-02-17T15:57:53.449Z,6.80
2019-02-17T16:00:22.525Z,6.43
2019-02-17T16:02:51.603Z,7.57
2019-02-17T16:05:20.724Z,6.53
2019-02-17T16:07:49.806Z,7.20
2019-02-17T16:10:18.919Z,7.70
2019-02-17T16:12:48.262Z,7.50
2019-02-17T16:15:24.055Z,8.00
2019-02-17T16:17:53.158Z,7.17
2019-02-17T16:20:22.298Z,6.80
2019-02-17T16:22:51.372Z,7.13
2019-02-17T16:25:20.575Z,6.70
2019-02-17T16:27:49.664Z,6.70
2019-02-17T16:30:22.007Z,7.07
2019-02-17T16:32:51.090Z,6.87
2019-02-17T16:35:20.262Z,6.93
2019-02-17T16:37:49.326Z,6.37
2019-02-17T16:40:18.752Z,6.57
2019-02-17T16:42:48.037Z,5.83
2019-02-17T16:45:17.185Z,6.97
2019-02-17T16:47:46.339Z,6.37
2019-02-17T16:50:16.936Z,7.80
2019-02-17T16:52:46.019Z,6.97
2019-02-17T16:55:15.086Z,8.00
2019-02-17T16:57:44.168Z,7.33
2019-02-17T17:00:16.406Z,6.37
2019-02-17T17:02:45.499Z,7.03
2019-02-17T17:05:14.549Z,7.50
2019-02-17T17:07:43.617Z,6.90
2019-02-17T17:10:13.551Z,6.80
2019-02-17T17:12:51.747Z,8.07
2019-02-17T17:15:20.825Z,17.17
2019-02-17T17:17:49.909Z,13.97
2019-02-17T17:20:19.597Z,15.00
2019-02-17T17:22:48.722Z,12.70
2019-02-17T17:25:17.961Z,12.53
2019-02-17T17:27:47.039Z,12.93
2019-02-17T17:30:17.650Z,11.90
2019-02-17T17:32:46.723Z,11.03
2019-02-17T17:35:15.792Z,11.30
2019-02-17T17:37:44.865Z,10.13
2019-02-17T17:40:14.504Z,11.93
2019-02-17T17:42:43.875Z,12.63
2019-02-17T17:45:14.518Z,11.63
2019-02-17T17:47:43.585Z,11.60
2019-02-17T17:50:13.339Z,15.30
2019-02-17T17:52:42.759Z,13.50
2019-02-17T17:55:12.396Z,12.23
2019-02-17T17:57:41.473Z,13.80
2019-02-17T18:00:12.281Z,12.67
2019-02-17T18:02:41.354Z,15.00
2019-02-17T18:05:10.497Z,15.13
2019-02-17T18:07:39.597Z,16.50
2019-02-17T18:10:14.936Z,14.47
2019-02-17T18:12:44.020Z,13.63
2019-02-17T18:15:13.661Z,14.30
2019-02-17T18:17:42.790Z,13.07
2019-02-17T18:20:12.431Z,13.17
2019-02-17T18:23:00.848Z,13.23
2019-02-17T18:25:29.933Z,12.83
2019-02-17T18:27:59.339Z,13.63
2019-02-17T18:30:28.738Z,13.50
2019-02-17T18:32:57.808Z,15.80
2019-02-17T18:35:26.880Z,15.83
2019-02-17T18:37:55.962Z,15.67
2019-02-17T18:40:25.028Z,14.43
2019-02-17T18:42:54.144Z,14.57
2019-02-17T18:45:23.207Z,15.90
2019-02-17T18:47:52.292Z,15.13
2019-02-17T18:50:21.370Z,15.30
2019-02-17T18:52:50.454Z,13.37
2019-02-17T18:55:19.527Z,14.37
2019-02-17T18:57:50.874Z,16.63
2019-02-17T19:00:20.530Z,13.90
2019-02-17T19:02:49.610Z,13.30
2019-02-17T19:05:21.629Z,12.10
2019-02-17T19:07:49.451Z,15.07
2019-02-17T19:10:18.789Z,14.43
2019-02-17T19:12:47.862Z,15.07
2019-02-17T19:15:18.472Z,14.73
2019-02-17T19:17:47.546Z,12.57
2019-02-17T19:20:27.123Z,14.00
2019-02-17T19:22:56.213Z,14.13
2019-02-17T19:25:25.296Z,12.73
2019-02-17T19:27:54.375Z,13.10
2019-02-17T19:30:23.439Z,12.67
2019-02-17T19:32:53.591Z,13.47
2019-02-17T19:35:22.953Z,14.03
2019-02-17T19:37:52.059Z,13.63
2019-02-17T19:40:21.199Z,14.67
2019-02-17T19:42:50.321Z,12.60
2019-02-17T19:45:19.449Z,15.43
2019-02-17T19:47:48.565Z,18.50
2019-02-17T19:50:17.922Z,15.87
2019-02-17T19:52:47.055Z,12.23
2019-02-17T19:55:16.151Z,14.03
2019-02-17T19:57:45.226Z,12.13
2019-02-17T20:00:15.073Z,12.77
2019-02-17T20:02:45.787Z,11.23
2019-02-17T20:05:16.491Z,12.00
2019-02-17T20:07:45.557Z,12.50
2019-02-17T20:10:14.635Z,12.33
2019-02-17T20:12:43.775Z,12.30
2019-02-17T20:15:12.859Z,12.37
2019-02-17T20:17:42.292Z,11.03
2019-02-17T20:20:11.377Z,9.80
2019-02-17T20:22:40.445Z,10.77
2019-02-17T20:25:09.517Z,10.43
2019-02-17T20:27:38.594Z,13.63
2019-02-17T20:30:09.234Z,11.70
2019-02-17T20:32:38.300Z,10.80
2019-02-17T20:35:08.056Z,11.27
2019-02-17T20:37:37.127Z,14.07
2019-02-17T20:40:07.735Z,13.57
2019-02-17T20:42:36.802Z,12.43
2019-02-17T20:45:07.346Z,12.27
2019-02-17T20:47:36.422Z,13.90
2019-02-17T20:50:07.076Z,15.73
2019-02-17T20:52:36.143Z,17.47
2019-02-17T20:55:06.723Z,15.73
2019-02-17T20:57:35.782Z,15.03
2019-02-17T21:00:06.741Z,13.90
2019-02-17T21:02:35.802Z,17.93
2019-02-17T21:05:06.243Z,12.63
2019-02-17T21:07:35.298Z,10.60
2019-02-17T21:10:05.997Z,10.93
2019-02-17T21:12:35.072Z,11.13
2019-02-17T21:15:04.919Z,9.83
2019-02-17T21:17:33.986Z,9.07
2019-02-17T21:20:03.126Z,8.10
2019-02-17T21:22:32.196Z,10.53
2019-02-17T21:25:01.278Z,9.00
2019-02-17T21:27:30.334Z,8.93
2019-02-17T21:29:59.422Z,9.37
2019-02-17T21:32:28.494Z,9.10
2019-02-17T21:34:57.566Z,8.67
2019-02-17T21:37:26.627Z,9.17
2019-02-17T21:39:55.719Z,9.73
2019-02-17T21:42:24.779Z,8.67
2019-02-17T21:44:53.850Z,7.23
2019-02-17T21:47:22.918Z,8.67
2019-02-17T21:49:51.983Z,7.30
2019-02-17T21:52:21.058Z,6.87
2019-02-17T21:54:50.123Z,7.17
2019-02-17T21:57:19.183Z,7.67
2019-02-17T21:59:50.295Z,6.37
2019-02-17T22:02:20.311Z,7.80
2019-02-17T22:04:49.725Z,7.70
2019-02-17T22:07:18.790Z,7.70
2019-02-17T22:09:51.305Z,8.30
2019-02-17T22:12:20.378Z,7.40
2019-02-17T22:14:49.435Z,7.53
2019-02-17T22:17:18.527Z,7.83
2019-02-17T22:19:47.576Z,7.37
2019-02-17T22:22:16.727Z,7.47
2019-02-17T22:24:45.790Z,7.40
2019-02-17T22:27:14.851Z,7.23
2019-02-17T22:29:43.903Z,8.10
2019-02-17T22:32:12.983Z,8.00
2019-02-17T22:34:42.058Z,8.23
2019-02-17T22:37:11.136Z,7.37
2019-02-17T22:39:40.354Z,7.90
2019-02-17T22:42:09.418Z,7.80
2019-02-17T22:44:38.484Z,7.47
2019-02-17T22:47:07.631Z,7.90
2019-02-17T22:49:36.791Z,7.70
2019-02-17T22:52:05.868Z,7.43
2019-02-17T22:54:34.939Z,8.77
2019-02-17T22:57:04.019Z,7.73
2019-02-17T22:59:33.083Z,7.03
2019-02-17T23:02:02.336Z,7.23
2019-02-17T23:04:31.396Z,7.57
2019-02-17T23:07:00.480Z,8.13
2019-02-17T23:09:29.546Z,7.27
2019-02-17T23:11:58.699Z,7.07
2019-02-17T23:14:28.050Z,7.60
2019-02-17T23:16:57.143Z,7.60
2019-02-17T23:19:26.197Z,8.13
2019-02-17T23:21:55.261Z,7.70
2019-02-17T23:24:24.535Z,7.47
2019-02-17T23:26:53.943Z,6.37
2019-02-17T23:29:23.083Z,8.17
2019-02-17T23:31:52.161Z,8.10
2019-02-17T23:34:21.232Z,7.63
2019-02-17T23:36:50.304Z,7.50
2019-02-17T23:39:19.354Z,7.23
2019-02-17T23:41:48.431Z,8.30
2019-02-17T23:44:17.493Z,8.23
2019-02-17T23:46:46.553Z,6.97
2019-02-17T23:49:15.600Z,7.47
2019-02-17T23:51:44.664Z,6.90
2019-02-17T23:54:13.719Z,6.83
2019-02-17T23:56:42.781Z,6.90
2019-02-17T23:59:11.841Z,7.27
